sensor_id;sensor_type;location;lat;lon;timestamp;temperature;humidity
22996;DHT22;11664;49.774;8.650;2023-03-30T00:01:59;16.50;99.90
22996;DHT22;11664;49.774;8.650;2023-03-30T00:04:43;16.50;99.90
22996;DHT22;11664;49.774;8.650;2023-03-30T00:07:09;16.50;99.90
22996;DHT22;11664;49.774;8.650;2023-03-30T00:09:41;16.50;99.90
22996;DHT22;11664;49.774;8.650;2023-03-30T00:12:10;16.40;99.90
22996;DHT22;11664;49.774;8.650;2023-03-30T00:14:48;16.40;99.90
22996;DHT22;11664;49.774;8.650;2023-03-30T00:17:19;16.30;99.90
22996;DHT22;11664;49.774;8.650;2023-03-30T00:19:45;16.40;99.90
22996;DHT22;11664;49.774;8.650;2023-03-30T00:22:15;16.40;99.90
22996;DHT22;11664;49.774;8.650;2023-03-30T00:24:49;16.30;99.90
22996;DHT22;11664;49.774;8.650;2023-03-30T00:27:22;16.30;99.90
22996;DHT22;11664;49.774;8.650;2023-03-30T00:29:48;16.20;99.90
22996;DHT22;11664;49.774;8.650;2023-03-30T00:32:22;16.20;99.90
22996;DHT22;11664;49.774;8.650;2023-03-30T00:34:48;16.20;99.90
22996;DHT22;11664;49.774;8.650;2023-03-30T00:37:19;16.20;99.90
22996;DHT22;11664;49.774;8.650;2023-03-30T00:39:51;16.20;99.90
22996;DHT22;11664;49.774;8.650;2023-03-30T00:42:21;16.10;99.90
22996;DHT22;11664;49.774;8.650;2023-03-30T00:45:19;16.10;99.90
22996;DHT22;11664;49.774;8.650;2023-03-30T00:48:04;16.00;99.90
22996;DHT22;11664;49.774;8.650;2023-03-30T00:50:51;16.00;99.90
22996;DHT22;11664;49.774;8.650;2023-03-30T00:53:36;15.90;99.90
22996;DHT22;11664;49.774;8.650;2023-03-30T00:56:08;15.80;99.90
22996;DHT22;11664;49.774;8.650;2023-03-30T00:58:44;15.80;99.90
22996;DHT22;11664;49.774;8.650;2023-03-30T01:01:17;15.70;99.90
22996;DHT22;11664;49.774;8.650;2023-03-30T01:03:50;15.70;99.90
22996;DHT22;11664;49.774;8.650;2023-03-30T01:06:17;15.60;99.90
22996;DHT22;11664;49.774;8.650;2023-03-30T01:08:56;15.50;99.90
22996;DHT22;11664;49.774;8.650;2023-03-30T01:11:28;15.50;99.90
22996;DHT22;11664;49.774;8.650;2023-03-30T01:14:14;15.40;99.90
22996;DHT22;11664;49.774;8.650;2023-03-30T01:37:00;15.00;99.90
22996;DHT22;11664;49.774;8.650;2023-03-30T01:45:53;15.20;99.90
22996;DHT22;11664;49.774;8.650;2023-03-30T01:48:49;15.20;99.90
22996;DHT22;11664;49.774;8.650;2023-03-30T01:51:20;15.30;99.90
22996;DHT22;11664;49.774;8.650;2023-03-30T01:54:04;15.30;99.90
22996;DHT22;11664;49.774;8.650;2023-03-30T01:56:37;15.40;99.90
22996;DHT22;11664;49.774;8.650;2023-03-30T01:59:28;15.60;99.90
22996;DHT22;11664;49.774;8.650;2023-03-30T02:02:03;15.70;99.90
22996;DHT22;11664;49.774;8.650;2023-03-30T02:04:34;15.90;99.90
22996;DHT22;11664;49.774;8.650;2023-03-30T02:07:10;16.00;99.90
22996;DHT22;11664;49.774;8.650;2023-03-30T02:09:39;16.00;99.90
22996;DHT22;11664;49.774;8.650;2023-03-30T02:12:12;16.00;99.90
22996;DHT22;11664;49.774;8.650;2023-03-30T02:14:40;16.00;99.90
22996;DHT22;11664;49.774;8.650;2023-03-30T02:17:16;16.00;99.90
22996;DHT22;11664;49.774;8.650;2023-03-30T02:19:51;16.00;99.90
22996;DHT22;11664;49.774;8.650;2023-03-30T02:22:22;16.10;99.90
22996;DHT22;11664;49.774;8.650;2023-03-30T02:25:03;16.00;99.90
22996;DHT22;11664;49.774;8.650;2023-03-30T02:27:40;16.10;99.90
22996;DHT22;11664;49.774;8.650;2023-03-30T02:30:09;16.10;99.90
22996;DHT22;11664;49.774;8.650;2023-03-30T02:32:47;16.20;99.90
22996;DHT22;11664;49.774;8.650;2023-03-30T02:35:46;16.20;99.90
22996;DHT22;11664;49.774;8.650;2023-03-30T02:41:29;16.20;99.90
22996;DHT22;11664;49.774;8.650;2023-03-30T02:44:30;16.20;99.90
22996;DHT22;11664;49.774;8.650;2023-03-30T02:50:45;16.30;99.90
22996;DHT22;11664;49.774;8.650;2023-03-30T02:53:54;16.30;99.90
22996;DHT22;11664;49.774;8.650;2023-03-30T02:56:32;16.30;99.90
22996;DHT22;11664;49.774;8.650;2023-03-30T02:59:11;16.20;99.90
22996;DHT22;11664;49.774;8.650;2023-03-30T03:02:02;16.20;99.90
22996;DHT22;11664;49.774;8.650;2023-03-30T03:04:33;16.10;99.90
22996;DHT22;11664;49.774;8.650;2023-03-30T03:07:09;16.10;99.90
22996;DHT22;11664;49.774;8.650;2023-03-30T03:09:35;16.10;99.90
22996;DHT22;11664;49.774;8.650;2023-03-30T03:12:07;16.00;99.90
22996;DHT22;11664;49.774;8.650;2023-03-30T03:14:33;16.00;99.90
22996;DHT22;11664;49.774;8.650;2023-03-30T03:17:01;16.00;99.90
22996;DHT22;11664;49.774;8.650;2023-03-30T03:19:29;16.10;99.90
22996;DHT22;11664;49.774;8.650;2023-03-30T03:22:01;16.10;99.90
22996;DHT22;11664;49.774;8.650;2023-03-30T03:24:35;16.10;99.90
22996;DHT22;11664;49.774;8.650;2023-03-30T03:27:09;16.10;99.90
22996;DHT22;11664;49.774;8.650;2023-03-30T03:29:35;16.00;99.90
22996;DHT22;11664;49.774;8.650;2023-03-30T03:32:02;15.90;99.90
22996;DHT22;11664;49.774;8.650;2023-03-30T03:34:27;15.80;99.90
22996;DHT22;11664;49.774;8.650;2023-03-30T03:36:56;15.70;99.90
22996;DHT22;11664;49.774;8.650;2023-03-30T03:39:22;15.50;99.90
22996;DHT22;11664;49.774;8.650;2023-03-30T03:41:54;15.40;99.90
22996;DHT22;11664;49.774;8.650;2023-03-30T03:44:21;15.40;99.90
22996;DHT22;11664;49.774;8.650;2023-03-30T03:46:49;15.30;99.90
22996;DHT22;11664;49.774;8.650;2023-03-30T03:49:15;15.20;99.90
22996;DHT22;11664;49.774;8.650;2023-03-30T03:51:46;15.10;99.90
22996;DHT22;11664;49.774;8.650;2023-03-30T03:54:15;15.00;99.90
22996;DHT22;11664;49.774;8.650;2023-03-30T03:56:40;15.00;99.90
22996;DHT22;11664;49.774;8.650;2023-03-30T03:59:06;14.90;99.90
22996;DHT22;11664;49.774;8.650;2023-03-30T04:01:41;14.90;99.90
22996;DHT22;11664;49.774;8.650;2023-03-30T04:04:13;14.90;99.90
22996;DHT22;11664;49.774;8.650;2023-03-30T04:06:46;14.90;99.90
22996;DHT22;11664;49.774;8.650;2023-03-30T04:09:18;14.80;99.90
22996;DHT22;11664;49.774;8.650;2023-03-30T04:12:04;14.70;99.90
22996;DHT22;11664;49.774;8.650;2023-03-30T04:14:30;14.70;99.90
22996;DHT22;11664;49.774;8.650;2023-03-30T04:16:58;14.70;99.90
22996;DHT22;11664;49.774;8.650;2023-03-30T04:19:32;14.70;99.90
22996;DHT22;11664;49.774;8.650;2023-03-30T04:21:58;14.70;99.90
22996;DHT22;11664;49.774;8.650;2023-03-30T04:24:25;14.70;99.90
22996;DHT22;11664;49.774;8.650;2023-03-30T04:26:54;14.70;99.90
22996;DHT22;11664;49.774;8.650;2023-03-30T04:29:27;14.70;99.90
22996;DHT22;11664;49.774;8.650;2023-03-30T04:31:53;14.70;99.90
22996;DHT22;11664;49.774;8.650;2023-03-30T04:34:24;14.70;99.90
22996;DHT22;11664;49.774;8.650;2023-03-30T04:36:51;14.80;99.90
22996;DHT22;11664;49.774;8.650;2023-03-30T04:39:21;14.80;99.90
22996;DHT22;11664;49.774;8.650;2023-03-30T04:41:52;14.80;99.90
22996;DHT22;11664;49.774;8.650;2023-03-30T04:44:18;14.80;99.90
22996;DHT22;11664;49.774;8.650;2023-03-30T04:46:51;14.80;99.90
22996;DHT22;11664;49.774;8.650;2023-03-30T04:49:16;14.80;99.90
22996;DHT22;11664;49.774;8.650;2023-03-30T04:51:51;14.90;99.90
22996;DHT22;11664;49.774;8.650;2023-03-30T04:54:20;14.80;99.90
22996;DHT22;11664;49.774;8.650;2023-03-30T04:56:46;14.80;99.90
22996;DHT22;11664;49.774;8.650;2023-03-30T04:59:12;14.70;99.90
22996;DHT22;11664;49.774;8.650;2023-03-30T05:01:50;14.60;99.90
22996;DHT22;11664;49.774;8.650;2023-03-30T05:04:16;14.50;99.90
22996;DHT22;11664;49.774;8.650;2023-03-30T05:06:44;14.50;99.90
22996;DHT22;11664;49.774;8.650;2023-03-30T05:09:19;14.40;99.90
22996;DHT22;11664;49.774;8.650;2023-03-30T05:12:03;14.30;99.90
22996;DHT22;11664;49.774;8.650;2023-03-30T05:14:29;14.30;99.90
22996;DHT22;11664;49.774;8.650;2023-03-30T05:16:54;14.20;99.90
22996;DHT22;11664;49.774;8.650;2023-03-30T05:19:23;14.10;99.90
22996;DHT22;11664;49.774;8.650;2023-03-30T05:21:55;14.00;99.90
22996;DHT22;11664;49.774;8.650;2023-03-30T05:24:29;14.00;99.90
22996;DHT22;11664;49.774;8.650;2023-03-30T05:26:55;13.90;99.90
22996;DHT22;11664;49.774;8.650;2023-03-30T05:29:21;13.80;99.90
22996;DHT22;11664;49.774;8.650;2023-03-30T05:31:46;13.80;99.90
22996;DHT22;11664;49.774;8.650;2023-03-30T05:34:12;13.70;99.90
22996;DHT22;11664;49.774;8.650;2023-03-30T05:36:43;13.60;99.90
22996;DHT22;11664;49.774;8.650;2023-03-30T05:39:09;13.60;99.90
22996;DHT22;11664;49.774;8.650;2023-03-30T05:41:41;13.50;99.90
22996;DHT22;11664;49.774;8.650;2023-03-30T05:44:09;13.60;99.90
22996;DHT22;11664;49.774;8.650;2023-03-30T05:46:44;13.50;99.90
22996;DHT22;11664;49.774;8.650;2023-03-30T05:49:10;13.50;99.90
22996;DHT22;11664;49.774;8.650;2023-03-30T05:51:35;13.50;99.90
22996;DHT22;11664;49.774;8.650;2023-03-30T05:54:09;13.40;99.90
22996;DHT22;11664;49.774;8.650;2023-03-30T05:56:35;13.40;99.90
22996;DHT22;11664;49.774;8.650;2023-03-30T05:59:01;13.40;99.90
22996;DHT22;11664;49.774;8.650;2023-03-30T06:01:38;13.30;99.90
22996;DHT22;11664;49.774;8.650;2023-03-30T06:04:10;13.30;99.90
22996;DHT22;11664;49.774;8.650;2023-03-30T06:06:36;13.20;99.90
22996;DHT22;11664;49.774;8.650;2023-03-30T06:09:04;13.20;99.90
22996;DHT22;11664;49.774;8.650;2023-03-30T06:11:36;13.10;99.90
22996;DHT22;11664;49.774;8.650;2023-03-30T06:14:08;13.10;99.90
22996;DHT22;11664;49.774;8.650;2023-03-30T06:16:40;13.00;99.90
22996;DHT22;11664;49.774;8.650;2023-03-30T06:19:09;13.00;99.90
22996;DHT22;11664;49.774;8.650;2023-03-30T06:21:41;13.00;99.90
22996;DHT22;11664;49.774;8.650;2023-03-30T06:24:07;13.00;99.90
22996;DHT22;11664;49.774;8.650;2023-03-30T06:26:32;13.00;99.90
22996;DHT22;11664;49.774;8.650;2023-03-30T06:29:01;13.00;99.90
22996;DHT22;11664;49.774;8.650;2023-03-30T06:31:30;13.00;99.90
22996;DHT22;11664;49.774;8.650;2023-03-30T06:33:58;13.00;99.90
22996;DHT22;11664;49.774;8.650;2023-03-30T06:36:27;12.90;99.90
22996;DHT22;11664;49.774;8.650;2023-03-30T06:38:52;12.90;99.90
22996;DHT22;11664;49.774;8.650;2023-03-30T06:41:18;13.00;99.90
22996;DHT22;11664;49.774;8.650;2023-03-30T06:43:45;12.90;99.90
22996;DHT22;11664;49.774;8.650;2023-03-30T06:46:14;12.90;99.90
22996;DHT22;11664;49.774;8.650;2023-03-30T06:48:46;12.90;99.90
22996;DHT22;11664;49.774;8.650;2023-03-30T06:51:17;12.90;99.90
22996;DHT22;11664;49.774;8.650;2023-03-30T06:53:47;12.90;99.90
22996;DHT22;11664;49.774;8.650;2023-03-30T06:56:15;12.90;99.90
22996;DHT22;11664;49.774;8.650;2023-03-30T06:58:44;12.90;99.90
22996;DHT22;11664;49.774;8.650;2023-03-30T07:01:11;12.80;99.90
22996;DHT22;11664;49.774;8.650;2023-03-30T07:03:37;12.80;99.90
22996;DHT22;11664;49.774;8.650;2023-03-30T07:06:06;12.70;99.90
22996;DHT22;11664;49.774;8.650;2023-03-30T07:08:38;12.70;99.90
22996;DHT22;11664;49.774;8.650;2023-03-30T07:11:05;12.70;99.90
22996;DHT22;11664;49.774;8.650;2023-03-30T07:13:32;12.70;99.90
22996;DHT22;11664;49.774;8.650;2023-03-30T07:15:58;12.70;99.90
22996;DHT22;11664;49.774;8.650;2023-03-30T07:18:33;12.70;99.90
22996;DHT22;11664;49.774;8.650;2023-03-30T07:21:11;12.70;99.90
22996;DHT22;11664;49.774;8.650;2023-03-30T07:23:39;12.70;99.90
22996;DHT22;11664;49.774;8.650;2023-03-30T07:29:38;12.70;99.90
22996;DHT22;11664;49.774;8.650;2023-03-30T07:32:04;12.60;99.90
22996;DHT22;11664;49.774;8.650;2023-03-30T07:34:51;12.70;99.90
22996;DHT22;11664;49.774;8.650;2023-03-30T07:37:20;12.60;99.90
22996;DHT22;11664;49.774;8.650;2023-03-30T07:39:45;12.60;99.90
22996;DHT22;11664;49.774;8.650;2023-03-30T07:42:14;12.60;99.90
22996;DHT22;11664;49.774;8.650;2023-03-30T07:44:42;12.60;99.90
22996;DHT22;11664;49.774;8.650;2023-03-30T07:47:14;12.60;99.90
22996;DHT22;11664;49.774;8.650;2023-03-30T07:49:40;12.60;99.90
22996;DHT22;11664;49.774;8.650;2023-03-30T07:52:12;12.70;99.90
22996;DHT22;11664;49.774;8.650;2023-03-30T07:54:38;12.70;99.90
22996;DHT22;11664;49.774;8.650;2023-03-30T07:57:07;12.90;99.90
22996;DHT22;11664;49.774;8.650;2023-03-30T07:59:38;13.00;99.90
22996;DHT22;11664;49.774;8.650;2023-03-30T08:02:14;13.10;99.90
22996;DHT22;11664;49.774;8.650;2023-03-30T08:04:43;13.10;99.90
22996;DHT22;11664;49.774;8.650;2023-03-30T08:07:15;13.10;99.90
22996;DHT22;11664;49.774;8.650;2023-03-30T08:09:40;13.10;99.90
22996;DHT22;11664;49.774;8.650;2023-03-30T08:12:09;13.10;99.90
22996;DHT22;11664;49.774;8.650;2023-03-30T08:14:38;13.00;99.90
22996;DHT22;11664;49.774;8.650;2023-03-30T08:17:03;13.00;99.90
22996;DHT22;11664;49.774;8.650;2023-03-30T08:19:38;13.00;99.90
22996;DHT22;11664;49.774;8.650;2023-03-30T08:22:09;13.10;99.90
22996;DHT22;11664;49.774;8.650;2023-03-30T08:24:38;13.10;99.90
22996;DHT22;11664;49.774;8.650;2023-03-30T08:27:05;13.20;99.90
22996;DHT22;11664;49.774;8.650;2023-03-30T08:29:36;13.30;99.90
22996;DHT22;11664;49.774;8.650;2023-03-30T08:32:23;13.40;99.90
22996;DHT22;11664;49.774;8.650;2023-03-30T08:34:52;13.50;99.90
22996;DHT22;11664;49.774;8.650;2023-03-30T08:37:28;13.60;99.90
22996;DHT22;11664;49.774;8.650;2023-03-30T08:39:53;13.70;99.90
22996;DHT22;11664;49.774;8.650;2023-03-30T08:42:42;13.80;99.90
22996;DHT22;11664;49.774;8.650;2023-03-30T08:45:15;13.90;99.90
22996;DHT22;11664;49.774;8.650;2023-03-30T08:47:53;14.00;99.90
22996;DHT22;11664;49.774;8.650;2023-03-30T08:50:31;14.00;99.90
22996;DHT22;11664;49.774;8.650;2023-03-30T08:53:01;14.10;99.90
22996;DHT22;11664;49.774;8.650;2023-03-30T08:58:43;14.20;99.90
22996;DHT22;11664;49.774;8.650;2023-03-30T09:01:25;14.20;99.90
22996;DHT22;11664;49.774;8.650;2023-03-30T09:07:04;14.20;99.90
22996;DHT22;11664;49.774;8.650;2023-03-30T09:09:48;14.10;99.90
22996;DHT22;11664;49.774;8.650;2023-03-30T09:15:25;13.90;99.90
22996;DHT22;11664;49.774;8.650;2023-03-30T09:21:21;13.90;99.90
22996;DHT22;11664;49.774;8.650;2023-03-30T09:23:53;13.80;99.90
22996;DHT22;11664;49.774;8.650;2023-03-30T09:29:36;13.90;99.90
22996;DHT22;11664;49.774;8.650;2023-03-30T09:32:23;14.00;99.90
22996;DHT22;11664;49.774;8.650;2023-03-30T09:35:32;14.10;99.90
22996;DHT22;11664;49.774;8.650;2023-03-30T09:37:58;14.20;99.90
22996;DHT22;11664;49.774;8.650;2023-03-30T09:40:46;14.30;99.90
22996;DHT22;11664;49.774;8.650;2023-03-30T09:43:24;14.30;99.90
22996;DHT22;11664;49.774;8.650;2023-03-30T09:45:57;14.30;99.90
22996;DHT22;11664;49.774;8.650;2023-03-30T09:48:23;14.30;99.90
22996;DHT22;11664;49.774;8.650;2023-03-30T09:50:49;14.20;99.90
22996;DHT22;11664;49.774;8.650;2023-03-30T09:53:27;14.20;99.90
22996;DHT22;11664;49.774;8.650;2023-03-30T09:56:37;14.30;99.90
22996;DHT22;11664;49.774;8.650;2023-03-30T09:59:29;14.30;99.90
22996;DHT22;11664;49.774;8.650;2023-03-30T10:02:09;14.40;99.90
22996;DHT22;11664;49.774;8.650;2023-03-30T10:04:59;14.40;99.90
22996;DHT22;11664;49.774;8.650;2023-03-30T10:10:41;14.50;99.90
22996;DHT22;11664;49.774;8.650;2023-03-30T10:13:27;14.50;99.90
22996;DHT22;11664;49.774;8.650;2023-03-30T10:15:55;14.50;99.90
22996;DHT22;11664;49.774;8.650;2023-03-30T10:18:26;14.50;99.90
22996;DHT22;11664;49.774;8.650;2023-03-30T10:23:39;14.60;99.90
22996;DHT22;11664;49.774;8.650;2023-03-30T10:26:12;14.60;99.90
22996;DHT22;11664;49.774;8.650;2023-03-30T10:29:11;14.80;99.90
22996;DHT22;11664;49.774;8.650;2023-03-30T10:34:51;15.40;99.90
22996;DHT22;11664;49.774;8.650;2023-03-30T10:37:44;15.60;99.90
22996;DHT22;11664;49.774;8.650;2023-03-30T10:40:18;15.70;99.90
22996;DHT22;11664;49.774;8.650;2023-03-30T10:42:47;15.60;99.90
22996;DHT22;11664;49.774;8.650;2023-03-30T10:45:27;15.70;99.90
22996;DHT22;11664;49.774;8.650;2023-03-30T10:51:17;15.80;99.90
22996;DHT22;11664;49.774;8.650;2023-03-30T10:53:58;15.90;99.90
22996;DHT22;11664;49.774;8.650;2023-03-30T10:56:38;16.00;99.90
22996;DHT22;11664;49.774;8.650;2023-03-30T10:59:23;16.00;99.90
22996;DHT22;11664;49.774;8.650;2023-03-30T11:07:44;15.60;99.90
22996;DHT22;11664;49.774;8.650;2023-03-30T11:10:18;15.50;99.90
22996;DHT22;11664;49.774;8.650;2023-03-30T11:12:55;15.50;99.90
22996;DHT22;11664;49.774;8.650;2023-03-30T11:24:27;15.90;99.90
22996;DHT22;11664;49.774;8.650;2023-03-30T11:27:05;16.00;99.90
22996;DHT22;11664;49.774;8.650;2023-03-30T11:33:10;16.30;99.90
22996;DHT22;11664;49.774;8.650;2023-03-30T11:35:52;16.60;99.90
22996;DHT22;11664;49.774;8.650;2023-03-30T11:38:38;16.40;99.90
22996;DHT22;11664;49.774;8.650;2023-03-30T11:41:14;16.40;99.90
22996;DHT22;11664;49.774;8.650;2023-03-30T11:43:46;16.30;99.90
22996;DHT22;11664;49.774;8.650;2023-03-30T11:46:20;16.30;99.90
22996;DHT22;11664;49.774;8.650;2023-03-30T11:58:07;16.00;99.90
22996;DHT22;11664;49.774;8.650;2023-03-30T12:03:41;15.80;99.90
22996;DHT22;11664;49.774;8.650;2023-03-30T12:09:21;15.90;99.90
22996;DHT22;11664;49.774;8.650;2023-03-30T12:20:24;15.90;99.90
22996;DHT22;11664;49.774;8.650;2023-03-30T12:23:22;15.90;99.90
22996;DHT22;11664;49.774;8.650;2023-03-30T12:26:25;16.60;99.90
22996;DHT22;11664;49.774;8.650;2023-03-30T12:28:59;17.40;99.90
22996;DHT22;11664;49.774;8.650;2023-03-30T12:34:40;17.80;99.90
22996;DHT22;11664;49.774;8.650;2023-03-30T12:37:20;17.90;99.90
22996;DHT22;11664;49.774;8.650;2023-03-30T12:39:53;17.70;99.90
22996;DHT22;11664;49.774;8.650;2023-03-30T12:42:26;17.50;99.90
22996;DHT22;11664;49.774;8.650;2023-03-30T12:45:23;17.40;99.90
22996;DHT22;11664;49.774;8.650;2023-03-30T12:51:15;17.20;99.90
22996;DHT22;11664;49.774;8.650;2023-03-30T12:53:53;17.20;99.90
22996;DHT22;11664;49.774;8.650;2023-03-30T12:59:51;18.60;99.90
22996;DHT22;11664;49.774;8.650;2023-03-30T13:04:59;19.10;99.90
22996;DHT22;11664;49.774;8.650;2023-03-30T13:07:30;19.20;99.90
22996;DHT22;11664;49.774;8.650;2023-03-30T13:13:04;18.80;99.90
22996;DHT22;11664;49.774;8.650;2023-03-30T13:18:22;19.40;99.90
22996;DHT22;11664;49.774;8.650;2023-03-30T13:21:15;19.80;99.90
22996;DHT22;11664;49.774;8.650;2023-03-30T13:23:43;19.80;99.90
22996;DHT22;11664;49.774;8.650;2023-03-30T13:26:24;19.60;99.90
22996;DHT22;11664;49.774;8.650;2023-03-30T13:29:02;19.30;99.90
22996;DHT22;11664;49.774;8.650;2023-03-30T13:34:33;18.70;99.90
22996;DHT22;11664;49.774;8.650;2023-03-30T13:37:13;18.30;99.90
22996;DHT22;11664;49.774;8.650;2023-03-30T13:40:22;18.00;99.90
22996;DHT22;11664;49.774;8.650;2023-03-30T13:46:18;18.70;99.90
22996;DHT22;11664;49.774;8.650;2023-03-30T13:51:44;20.30;98.20
22996;DHT22;11664;49.774;8.650;2023-03-30T13:56:40;20.50;96.20
22996;DHT22;11664;49.774;8.650;2023-03-30T13:59:17;20.00;95.60
22996;DHT22;11664;49.774;8.650;2023-03-30T14:02:00;19.60;96.60
22996;DHT22;11664;49.774;8.650;2023-03-30T14:04:31;19.20;96.20
22996;DHT22;11664;49.774;8.650;2023-03-30T14:07:04;19.10;96.50
22996;DHT22;11664;49.774;8.650;2023-03-30T14:09:30;19.50;97.20
22996;DHT22;11664;49.774;8.650;2023-03-30T14:11:57;20.10;95.80
22996;DHT22;11664;49.774;8.650;2023-03-30T14:14:43;20.20;95.00
22996;DHT22;11664;49.774;8.650;2023-03-30T14:17:22;20.40;93.80
22996;DHT22;11664;49.774;8.650;2023-03-30T14:22:52;21.30;94.00
22996;DHT22;11664;49.774;8.650;2023-03-30T14:25:27;20.90;92.50
22996;DHT22;11664;49.774;8.650;2023-03-30T14:27:55;20.30;93.50
22996;DHT22;11664;49.774;8.650;2023-03-30T14:30:26;19.90;94.30
22996;DHT22;11664;49.774;8.650;2023-03-30T14:33:25;19.30;94.60
22996;DHT22;11664;49.774;8.650;2023-03-30T14:35:55;18.70;96.20
22996;DHT22;11664;49.774;8.650;2023-03-30T14:40:57;18.00;98.80
22996;DHT22;11664;49.774;8.650;2023-03-30T14:43:29;17.50;99.90
22996;DHT22;11664;49.774;8.650;2023-03-30T14:46:10;17.10;99.90
22996;DHT22;11664;49.774;8.650;2023-03-30T14:48:41;16.90;99.90
22996;DHT22;11664;49.774;8.650;2023-03-30T14:51:26;16.80;99.90
22996;DHT22;11664;49.774;8.650;2023-03-30T14:53:53;16.90;99.90
22996;DHT22;11664;49.774;8.650;2023-03-30T14:56:25;17.70;99.90
22996;DHT22;11664;49.774;8.650;2023-03-30T14:59:05;18.60;99.90
22996;DHT22;11664;49.774;8.650;2023-03-30T15:01:32;19.20;99.90
22996;DHT22;11664;49.774;8.650;2023-03-30T15:04:04;19.80;99.90
22996;DHT22;11664;49.774;8.650;2023-03-30T15:06:31;20.30;99.60
22996;DHT22;11664;49.774;8.650;2023-03-30T15:09:02;20.30;97.10
22996;DHT22;11664;49.774;8.650;2023-03-30T15:11:37;20.10;96.30
22996;DHT22;11664;49.774;8.650;2023-03-30T15:14:09;19.70;97.30
22996;DHT22;11664;49.774;8.650;2023-03-30T15:16:51;19.40;97.90
22996;DHT22;11664;49.774;8.650;2023-03-30T15:19:29;19.00;98.80
22996;DHT22;11664;49.774;8.650;2023-03-30T15:25:04;19.00;99.80
22996;DHT22;11664;49.774;8.650;2023-03-30T15:27:35;19.20;99.30
22996;DHT22;11664;49.774;8.650;2023-03-30T15:30:04;18.90;99.30
22996;DHT22;11664;49.774;8.650;2023-03-30T15:32:42;18.50;99.90
22996;DHT22;11664;49.774;8.650;2023-03-30T15:35:24;18.30;99.90
22996;DHT22;11664;49.774;8.650;2023-03-30T15:38:00;18.10;99.90
22996;DHT22;11664;49.774;8.650;2023-03-30T15:40:48;18.10;99.90
22996;DHT22;11664;49.774;8.650;2023-03-30T15:43:24;18.20;99.90
22996;DHT22;11664;49.774;8.650;2023-03-30T15:46:12;18.20;99.90
22996;DHT22;11664;49.774;8.650;2023-03-30T15:48:46;18.00;99.90
22996;DHT22;11664;49.774;8.650;2023-03-30T15:59:38;18.80;98.40
22996;DHT22;11664;49.774;8.650;2023-03-30T16:05:30;17.60;99.90
22996;DHT22;11664;49.774;8.650;2023-03-30T16:08:00;17.10;99.90
22996;DHT22;11664;49.774;8.650;2023-03-30T16:10:29;16.90;99.90
22996;DHT22;11664;49.774;8.650;2023-03-30T16:13:01;16.80;99.90
22996;DHT22;11664;49.774;8.650;2023-03-30T16:15:36;16.60;99.90
22996;DHT22;11664;49.774;8.650;2023-03-30T16:18:01;16.50;99.90
22996;DHT22;11664;49.774;8.650;2023-03-30T16:20:36;16.40;99.90
22996;DHT22;11664;49.774;8.650;2023-03-30T16:23:13;16.30;99.90
22996;DHT22;11664;49.774;8.650;2023-03-30T16:25:39;16.20;99.90
22996;DHT22;11664;49.774;8.650;2023-03-30T16:28:09;16.00;99.90
22996;DHT22;11664;49.774;8.650;2023-03-30T16:30:39;15.70;99.90
22996;DHT22;11664;49.774;8.650;2023-03-30T16:36:21;15.60;99.90
22996;DHT22;11664;49.774;8.650;2023-03-30T16:38:48;15.60;99.90
22996;DHT22;11664;49.774;8.650;2023-03-30T16:41:35;15.70;99.90
22996;DHT22;11664;49.774;8.650;2023-03-30T16:44:01;15.70;99.90
22996;DHT22;11664;49.774;8.650;2023-03-30T16:46:32;15.70;99.90
22996;DHT22;11664;49.774;8.650;2023-03-30T16:49:01;15.70;99.90
22996;DHT22;11664;49.774;8.650;2023-03-30T16:51:29;15.70;99.90
22996;DHT22;11664;49.774;8.650;2023-03-30T16:53:58;15.60;99.90
22996;DHT22;11664;49.774;8.650;2023-03-30T16:56:27;15.50;99.90
22996;DHT22;11664;49.774;8.650;2023-03-30T16:58:53;15.50;99.90
22996;DHT22;11664;49.774;8.650;2023-03-30T17:01:22;15.40;99.90
22996;DHT22;11664;49.774;8.650;2023-03-30T17:03:57;15.40;99.90
22996;DHT22;11664;49.774;8.650;2023-03-30T17:06:35;15.20;99.90
22996;DHT22;11664;49.774;8.650;2023-03-30T17:09:04;15.20;99.90
22996;DHT22;11664;49.774;8.650;2023-03-30T17:11:30;15.20;99.90
22996;DHT22;11664;49.774;8.650;2023-03-30T17:13:55;15.10;99.90
22996;DHT22;11664;49.774;8.650;2023-03-30T17:16:21;15.00;99.90
22996;DHT22;11664;49.774;8.650;2023-03-30T17:18:49;15.00;99.90
22996;DHT22;11664;49.774;8.650;2023-03-30T17:21:21;14.90;99.90
22996;DHT22;11664;49.774;8.650;2023-03-30T17:23:47;14.90;99.90
22996;DHT22;11664;49.774;8.650;2023-03-30T17:26:19;14.80;99.90
22996;DHT22;11664;49.774;8.650;2023-03-30T17:28:48;14.80;99.90
22996;DHT22;11664;49.774;8.650;2023-03-30T17:31:21;14.70;99.90
22996;DHT22;11664;49.774;8.650;2023-03-30T17:33:47;14.60;99.90
22996;DHT22;11664;49.774;8.650;2023-03-30T17:36:21;14.50;99.90
22996;DHT22;11664;49.774;8.650;2023-03-30T17:38:49;14.50;99.90
22996;DHT22;11664;49.774;8.650;2023-03-30T17:41:27;14.40;99.90
22996;DHT22;11664;49.774;8.650;2023-03-30T17:43:53;14.30;99.90
22996;DHT22;11664;49.774;8.650;2023-03-30T17:46:24;14.20;99.90
22996;DHT22;11664;49.774;8.650;2023-03-30T17:48:50;14.10;99.90
22996;DHT22;11664;49.774;8.650;2023-03-30T17:51:22;14.00;99.90
22996;DHT22;11664;49.774;8.650;2023-03-30T17:53:47;13.90;99.90
22996;DHT22;11664;49.774;8.650;2023-03-30T17:56:13;13.80;99.90
22996;DHT22;11664;49.774;8.650;2023-03-30T17:58:41;13.80;99.90
22996;DHT22;11664;49.774;8.650;2023-03-30T18:01:07;13.70;99.90
22996;DHT22;11664;49.774;8.650;2023-03-30T18:03:42;13.70;99.90
22996;DHT22;11664;49.774;8.650;2023-03-30T18:06:11;13.60;99.90
22996;DHT22;11664;49.774;8.650;2023-03-30T18:08:37;13.60;99.90
22996;DHT22;11664;49.774;8.650;2023-03-30T18:11:15;13.50;99.90
22996;DHT22;11664;49.774;8.650;2023-03-30T18:13:50;13.40;99.90
22996;DHT22;11664;49.774;8.650;2023-03-30T18:16:18;13.30;99.90
22996;DHT22;11664;49.774;8.650;2023-03-30T18:18:52;13.30;99.90
22996;DHT22;11664;49.774;8.650;2023-03-30T18:21:18;13.20;99.90
22996;DHT22;11664;49.774;8.650;2023-03-30T18:24:05;13.20;99.90
22996;DHT22;11664;49.774;8.650;2023-03-30T18:26:35;13.20;99.90
22996;DHT22;11664;49.774;8.650;2023-03-30T18:29:15;13.20;99.90
22996;DHT22;11664;49.774;8.650;2023-03-30T18:31:47;13.20;99.90
22996;DHT22;11664;49.774;8.650;2023-03-30T18:34:18;13.20;99.90
22996;DHT22;11664;49.774;8.650;2023-03-30T18:36:49;13.20;99.90
22996;DHT22;11664;49.774;8.650;2023-03-30T18:39:16;13.20;99.90
22996;DHT22;11664;49.774;8.650;2023-03-30T18:41:48;13.20;99.90
22996;DHT22;11664;49.774;8.650;2023-03-30T18:44:16;13.30;99.90
22996;DHT22;11664;49.774;8.650;2023-03-30T18:46:46;13.30;99.90
22996;DHT22;11664;49.774;8.650;2023-03-30T18:49:14;13.30;99.90